Time;durP1;ratioP1;P1;durP2;ratioP2;P2;SDS_P1;SDS_P2;PMS_P1;PMS_P2;Temp;Humidity;BMP_temperature;BMP_pressure;BME280_temperature;BME280_humidity;BME280_pressure;Samples;Min_cycle;Max_cycle;Signal;HPM_P1;HPM_P2
2023/04/04 00:00:40;;;;;;;7.13;1.85;;;22.70;99.90;;;;;;5063055;28;20036;-61
2023/04/04 00:03:07;;;;;;;4.03;1.05;;;22.90;99.90;;;;;;5063608;28;20043;-59
2023/04/04 00:05:35;;;;;;;7.18;1.10;;;23.20;99.90;;;;;;5058385;28;20405;-59
2023/04/04 00:08:03;;;;;;;5.50;1.27;;;23.50;99.90;;;;;;5068686;28;20523;-59
2023/04/04 00:10:30;;;;;;;6.32;1.23;;;23.60;99.90;;;;;;5067516;28;20025;-59
2023/04/04 00:12:57;;;;;;;5.60;1.33;;;23.80;99.90;;;;;;5070341;28;20027;-59
2023/04/04 00:15:26;;;;;;;5.53;1.00;;;23.90;99.90;;;;;;5070272;28;20016;-59
2023/04/04 00:17:53;;;;;;;9.80;1.48;;;23.90;99.90;;;;;;5084554;28;20017;-60
2023/04/04 00:20:20;;;;;;;10.27;1.48;;;24.00;99.90;;;;;;5072609;28;20029;-62
2023/04/04 00:22:48;;;;;;;5.30;1.40;;;24.20;99.90;;;;;;5065636;28;20499;-59
2023/04/04 00:25:15;;;;;;;10.27;1.45;;;24.50;99.90;;;;;;5070568;28;20107;-60
2023/04/04 00:27:43;;;;;;;9.55;1.17;;;24.80;99.90;;;;;;5070220;28;20032;-65
2023/04/04 00:30:11;;;;;;;7.28;2.58;;;25.00;99.90;;;;;;5062726;28;20429;-60
2023/04/04 00:32:39;;;;;;;9.00;2.00;;;25.10;99.90;;;;;;5055662;28;20110;-59
2023/04/04 00:35:07;;;;;;;9.63;1.23;;;25.30;99.90;;;;;;5064071;28;20074;-60
2023/04/04 00:37:35;;;;;;;6.20;1.45;;;25.40;99.90;;;;;;5052454;28;20372;-60
2023/04/04 00:40:03;;;;;;;13.13;2.00;;;25.60;99.90;;;;;;5067199;28;20741;-60
2023/04/04 00:42:30;;;;;;;5.32;1.13;;;25.70;99.90;;;;;;5060293;28;20024;-60
2023/04/04 00:44:58;;;;;;;4.55;1.40;;;25.70;99.90;;;;;;5065728;28;20536;-60
2023/04/04 00:47:30;;;;;;;8.35;1.50;;;25.80;99.90;;;;;;5074517;28;20040;-61
2023/04/04 00:49:57;;;;;;;7.72;1.20;;;26.10;99.90;;;;;;5060725;28;20067;-60
2023/04/04 00:52:25;;;;;;;9.85;1.13;;;26.10;99.90;;;;;;5057472;28;20029;-60
2023/04/04 00:54:54;;;;;;;7.90;1.08;;;26.30;99.90;;;;;;5059920;28;20031;-60
2023/04/04 00:57:23;;;;;;;8.18;0.98;;;26.50;99.90;;;;;;5051011;28;20062;-60
2023/04/04 00:59:51;;;;;;;4.40;0.95;;;26.70;99.90;;;;;;5067069;28;20032;-61
2023/04/04 01:02:18;;;;;;;4.03;1.05;;;26.50;99.90;;;;;;5056689;28;20589;-61
2023/04/04 01:04:46;;;;;;;14.63;1.70;;;26.30;99.90;;;;;;5060025;28;20059;-60
2023/04/04 01:07:13;;;;;;;6.82;1.38;;;26.20;99.90;;;;;;5063165;28;20074;-61
2023/04/04 01:09:44;;;;;;;7.03;1.60;;;26.20;99.90;;;;;;5064049;28;20055;-60
2023/04/04 01:12:11;;;;;;;8.00;1.08;;;25.90;99.90;;;;;;5070219;28;20458;-60
2023/04/04 01:14:39;;;;;;;5.40;2.05;;;25.90;99.90;;;;;;5061377;28;20024;-59
2023/04/04 01:17:07;;;;;;;11.88;1.55;;;25.80;99.90;;;;;;5057803;28;20452;-60
2023/04/04 01:19:43;;;;;;;8.07;1.15;;;25.80;99.90;;;;;;5074607;28;20123;-60
2023/04/04 01:22:14;;;;;;;7.88;1.27;;;26.00;99.90;;;;;;5060512;28;20029;-60
2023/04/04 01:24:44;;;;;;;4.70;1.73;;;25.90;99.90;;;;;;5066820;28;20023;-59
2023/04/04 01:27:12;;;;;;;6.18;1.13;;;25.90;99.90;;;;;;5074433;28;20020;-61
2023/04/04 01:29:39;;;;;;;9.00;1.42;;;25.80;99.90;;;;;;5062756;28;20400;-59
2023/04/04 01:32:20;;;;;;;6.80;1.05;;;25.40;99.90;;;;;;5053822;28;20032;-60
2023/04/04 01:35:19;;;;;;;4.07;0.82;;;25.30;99.90;;;;;;5065981;28;20420;-59
2023/04/04 01:38:15;;;;;;;9.13;1.00;;;25.00;99.90;;;;;;5055815;28;20124;-59
2023/04/04 01:40:48;;;;;;;5.22;1.88;;;25.00;99.90;;;;;;5061968;28;20028;-60
2023/04/04 01:43:15;;;;;;;6.45;0.98;;;25.40;99.90;;;;;;5062818;28;20027;-61
2023/04/04 01:45:43;;;;;;;3.33;0.70;;;25.60;99.90;;;;;;5052611;28;20104;-62
2023/04/04 01:48:11;;;;;;;9.25;1.83;;;25.80;99.90;;;;;;5061825;28;20037;-61
2023/04/04 01:50:38;;;;;;;6.68;1.20;;;25.90;99.90;;;;;;5059289;28;20017;-60
2023/04/04 01:53:06;;;;;;;5.55;0.93;;;25.70;99.90;;;;;;5092532;28;20028;-60
2023/04/04 01:55:33;;;;;;;6.13;0.80;;;25.20;99.90;;;;;;5072399;28;20693;-60
2023/04/04 01:58:00;;;;;;;5.85;1.13;;;24.90;99.90;;;;;;5055219;28;20044;-59
2023/04/04 02:00:28;;;;;;;7.25;1.35;;;24.90;99.90;;;;;;5069513;28;20033;-59
2023/04/04 02:02:55;;;;;;;5.97;1.30;;;24.90;99.90;;;;;;5068849;28;20020;-61
2023/04/04 02:05:23;;;;;;;7.57;1.42;;;24.90;99.90;;;;;;5077956;28;20056;-61
2023/04/04 02:07:50;;;;;;;6.97;1.10;;;25.00;99.90;;;;;;5063517;28;20032;-61
2023/04/04 02:10:18;;;;;;;4.07;0.95;;;25.30;99.90;;;;;;5064129;28;20056;-59
2023/04/04 02:12:46;;;;;;;5.47;1.08;;;25.70;99.90;;;;;;5070142;28;20020;-60
2023/04/04 02:15:13;;;;;;;5.38;1.15;;;26.10;99.90;;;;;;5064588;28;20166;-61
2023/04/04 02:17:41;;;;;;;7.30;1.02;;;26.30;99.80;;;;;;5075121;28;20039;-60
2023/04/04 02:20:09;;;;;;;5.47;1.00;;;26.50;99.60;;;;;;5074883;28;20103;-61
2023/04/04 02:22:36;;;;;;;10.07;1.70;;;26.60;99.60;;;;;;5065132;28;20079;-60
2023/04/04 02:25:04;;;;;;;7.90;1.60;;;26.90;97.30;;;;;;5063159;28;20216;-61
2023/04/04 02:27:32;;;;;;;4.53;0.90;;;26.90;96.80;;;;;;5064398;28;20033;-61
2023/04/04 02:29:59;;;;;;;8.07;1.20;;;27.20;99.90;;;;;;5076712;28;20032;-59
2023/04/04 02:32:26;;;;;;;8.25;1.35;;;27.30;96.30;;;;;;5055908;28;20574;-59
2023/04/04 02:34:54;;;;;;;8.27;1.40;;;27.00;97.00;;;;;;5056303;28;20025;-59
2023/04/04 02:37:21;;;;;;;5.13;1.08;;;26.80;97.80;;;;;;5064737;28;20477;-59
2023/04/04 02:39:49;;;;;;;5.95;1.67;;;26.50;97.70;;;;;;5056753;28;20033;-60
2023/04/04 02:42:16;;;;;;;3.13;0.90;;;26.40;99.70;;;;;;5064697;28;20017;-60
2023/04/04 02:44:44;;;;;;;8.40;1.23;;;26.20;99.50;;;;;;5071167;28;20032;-60
2023/04/04 02:47:11;;;;;;;4.88;1.05;;;25.90;98.60;;;;;;5071310;28;20020;-61
2023/04/04 02:49:38;;;;;;;5.38;1.10;;;25.60;99.50;;;;;;5083465;28;20040;-60
2023/04/04 02:52:07;;;;;;;9.07;1.13;;;25.30;99.70;;;;;;5077334;28;20025;-59
2023/04/04 02:54:34;;;;;;;7.20;1.27;;;25.00;99.90;;;;;;5060913;28;20147;-62
2023/04/04 02:57:03;;;;;;;3.10;0.90;;;24.80;99.90;;;;;;5055922;28;20017;-61
2023/04/04 02:59:30;;;;;;;4.93;0.88;;;24.60;99.90;;;;;;5063213;28;20025;-62
2023/04/04 03:01:58;;;;;;;5.00;0.80;;;24.60;99.90;;;;;;5070293;28;20029;-62
2023/04/04 03:04:25;;;;;;;5.55;1.40;;;24.60;99.90;;;;;;5065672;28;20378;-67
2023/04/04 03:06:53;;;;;;;3.55;0.85;;;24.90;99.90;;;;;;5077861;28;20515;-61
2023/04/04 03:09:20;;;;;;;6.32;0.90;;;25.30;99.90;;;;;;5059883;28;20393;-61
2023/04/04 03:11:50;;;;;;;3.05;1.00;;;25.90;99.90;;;;;;5063612;28;20057;-62
2023/04/04 03:14:17;;;;;;;5.00;1.00;;;26.20;99.90;;;;;;5071134;28;20029;-61
2023/04/04 03:16:45;;;;;;;7.78;1.50;;;26.50;99.20;;;;;;5064861;28;20016;-60
2023/04/04 03:19:12;;;;;;;4.72;1.00;;;26.50;95.60;;;;;;5062675;28;20012;-60
2023/04/04 03:21:40;;;;;;;4.85;0.98;;;26.40;95.20;;;;;;5070511;28;20104;-60
2023/04/04 03:24:07;;;;;;;2.58;1.17;;;26.10;95.40;;;;;;5070344;28;20028;-60
2023/04/04 03:26:35;;;;;;;9.80;0.82;;;26.10;96.70;;;;;;5059828;28;20037;-60
2023/04/04 03:29:03;;;;;;;7.50;0.90;;;26.20;97.00;;;;;;5071910;28;20626;-61
2023/04/04 03:31:31;;;;;;;3.53;0.68;;;26.20;97.30;;;;;;5059878;28;20029;-60
2023/04/04 03:33:59;;;;;;;5.03;1.10;;;26.40;97.20;;;;;;5068492;28;20060;-60
2023/04/04 03:36:27;;;;;;;6.22;0.90;;;26.30;94.40;;;;;;5074495;28;20021;-60
2023/04/04 03:38:54;;;;;;;6.03;1.30;;;26.20;94.00;;;;;;5072863;28;20042;-61
2023/04/04 03:41:22;;;;;;;1.83;0.98;;;25.90;94.20;;;;;;5070249;28;20351;-59
2023/04/04 03:43:50;;;;;;;5.63;0.70;;;25.90;94.70;;;;;;5072650;28;20040;-59
2023/04/04 03:46:17;;;;;;;5.43;0.85;;;25.90;96.10;;;;;;5068190;28;20095;-60
2023/04/04 03:48:45;;;;;;;3.88;0.85;;;26.10;95.20;;;;;;5058218;28;20559;-60
2023/04/04 03:51:12;;;;;;;6.80;0.82;;;26.30;93.30;;;;;;5072773;28;20043;-60
2023/04/04 03:53:40;;;;;;;4.72;0.80;;;26.30;92.20;;;;;;5066094;28;20029;-60
2023/04/04 03:56:07;;;;;;;5.05;0.95;;;26.10;93.00;;;;;;5064800;28;20374;-60
2023/04/04 03:58:36;;;;;;;3.38;0.90;;;26.00;93.40;;;;;;5062940;28;20055;-59
2023/04/04 04:01:03;;;;;;;4.05;0.50;;;26.00;93.30;;;;;;5066599;28;20082;-59
2023/04/04 04:03:31;;;;;;;4.15;0.65;;;26.30;94.60;;;;;;5061674;28;20025;-59
2023/04/04 04:05:59;;;;;;;3.47;0.80;;;26.30;92.00;;;;;;5082338;28;20052;-60
2023/04/04 04:08:27;;;;;;;5.93;0.73;;;26.40;94.10;;;;;;5077530;28;20150;-59
2023/04/04 04:10:55;;;;;;;4.63;0.60;;;26.40;93.50;;;;;;5055383;28;20036;-59
2023/04/04 04:13:22;;;;;;;4.20;0.80;;;26.60;93.70;;;;;;5074724;28;20052;-60
2023/04/04 04:15:50;;;;;;;10.43;1.30;;;26.30;93.40;;;;;;5068596;28;20424;-60
2023/04/04 04:18:17;;;;;;;6.18;1.00;;;26.30;94.30;;;;;;5087548;28;20537;-59
2023/04/04 04:20:45;;;;;;;6.15;1.00;;;26.20;93.90;;;;;;5072210;28;20441;-61
2023/04/04 04:23:12;;;;;;;5.40;1.00;;;26.30;94.50;;;;;;5060199;28;20497;-61
2023/04/04 04:25:40;;;;;;;4.95;0.68;;;26.30;93.30;;;;;;5080110;28;20038;-61
2023/04/04 04:28:07;;;;;;;5.65;1.00;;;26.30;93.00;;;;;;5062199;28;20033;-61
2023/04/04 04:30:35;;;;;;;4.28;0.80;;;26.40;93.80;;;;;;5050068;28;20047;-61
2023/04/04 04:33:02;;;;;;;7.35;1.02;;;26.40;92.30;;;;;;5049360;28;20235;-61
2023/04/04 04:35:30;;;;;;;5.32;0.90;;;26.30;94.10;;;;;;5054534;28;20386;-59
2023/04/04 04:37:57;;;;;;;3.70;0.80;;;26.40;93.50;;;;;;5052553;28;20021;-60
2023/04/04 04:40:25;;;;;;;9.45;1.23;;;26.40;93.10;;;;;;5067768;28;20067;-60
2023/04/04 04:42:52;;;;;;;5.40;0.70;;;26.10;94.10;;;;;;5063137;28;20092;-61
2023/04/04 04:45:20;;;;;;;5.18;0.73;;;25.90;95.80;;;;;;5064758;28;20078;-61
2023/04/04 04:47:47;;;;;;;3.58;1.27;;;25.90;96.50;;;;;;5059414;28;20075;-62
2023/04/04 04:50:15;;;;;;;2.72;0.77;;;25.80;96.20;;;;;;5052730;28;20583;-62
2023/04/04 04:52:43;;;;;;;5.95;0.75;;;25.70;95.70;;;;;;5067125;28;20020;-65
2023/04/04 04:55:11;;;;;;;5.68;1.17;;;25.60;96.00;;;;;;5082080;28;20024;-63
2023/04/04 04:57:39;;;;;;;3.55;1.00;;;25.30;96.00;;;;;;5061552;28;20020;-62
2023/04/04 05:00:08;;;;;;;4.10;1.00;;;25.10;97.20;;;;;;5054944;28;20373;-63
2023/04/04 05:02:36;;;;;;;4.65;0.98;;;24.90;97.40;;;;;;5061309;28;20085;-62
2023/04/04 05:05:04;;;;;;;7.65;0.80;;;24.70;98.00;;;;;;5066522;28;20404;-62
2023/04/04 05:07:32;;;;;;;5.30;0.90;;;24.50;99.20;;;;;;5053422;28;20043;-61
2023/04/04 05:10:00;;;;;;;7.47;0.90;;;24.30;99.00;;;;;;5051266;28;20028;-61
2023/04/04 05:12:28;;;;;;;6.07;1.00;;;24.20;99.70;;;;;;5063256;28;20020;-62
2023/04/04 05:14:56;;;;;;;6.57;1.27;;;24.10;99.90;;;;;;5067293;28;20020;-62
2023/04/04 05:17:23;;;;;;;4.47;0.93;;;24.00;99.90;;;;;;5057497;28;20017;-62
2023/04/04 05:19:51;;;;;;;4.15;0.70;;;24.00;99.90;;;;;;5058041;28;20053;-60
2023/04/04 05:22:18;;;;;;;4.82;0.65;;;24.00;99.90;;;;;;5063439;28;20381;-60
2023/04/04 05:24:46;;;;;;;7.82;1.88;;;23.90;99.90;;;;;;5064384;28;20024;-60
2023/04/04 05:27:13;;;;;;;2.72;0.60;;;23.80;99.90;;;;;;5076657;28;20017;-63
2023/04/04 05:29:41;;;;;;;4.90;0.55;;;23.70;99.90;;;;;;5062796;28;20045;-60
2023/04/04 05:32:08;;;;;;;3.30;0.85;;;23.60;99.90;;;;;;5052919;28;20046;-61
2023/04/04 05:34:35;;;;;;;5.00;0.88;;;23.60;99.90;;;;;;5052798;28;20489;-60
2023/04/04 05:37:03;;;;;;;6.65;1.30;;;23.50;99.90;;;;;;5062260;28;20560;-60
2023/04/04 05:39:30;;;;;;;4.13;0.73;;;23.50;99.90;;;;;;5054103;28;20389;-62
2023/04/04 05:41:58;;;;;;;6.10;0.77;;;23.50;99.90;;;;;;5051454;28;20040;-60
2023/04/04 05:44:25;;;;;;;3.65;0.82;;;23.50;99.90;;;;;;5056055;28;20027;-60
2023/04/04 05:46:53;;;;;;;6.10;1.13;;;23.50;99.90;;;;;;5064855;28;20033;-60
2023/04/04 05:49:20;;;;;;;5.07;0.85;;;23.50;99.90;;;;;;5065921;28;20028;-60
2023/04/04 05:51:48;;;;;;;7.82;1.70;;;23.50;99.90;;;;;;5076392;28;20508;-60
2023/04/04 05:54:15;;;;;;;2.67;0.60;;;23.50;99.90;;;;;;5063801;28;20043;-60
2023/04/04 05:56:43;;;;;;;6.32;0.77;;;23.50;99.90;;;;;;5063780;28;20075;-61
2023/04/04 05:59:10;;;;;;;3.95;0.85;;;23.60;99.90;;;;;;5052901;28;20024;-61
2023/04/04 06:01:39;;;;;;;6.47;1.20;;;23.60;99.90;;;;;;5056839;28;20021;-60
2023/04/04 06:04:06;;;;;;;6.30;0.85;;;23.70;99.90;;;;;;5059095;28;20082;-59
2023/04/04 06:06:34;;;;;;;4.95;0.93;;;23.70;99.90;;;;;;5051346;28;20401;-60
2023/04/04 06:09:02;;;;;;;3.75;0.60;;;23.70;99.90;;;;;;5074395;28;20032;-62
2023/04/04 06:11:31;;;;;;;3.47;1.45;;;23.70;99.90;;;;;;5069585;28;20025;-61
2023/04/04 06:13:58;;;;;;;6.35;1.17;;;23.70;99.90;;;;;;5064337;28;20028;-61
2023/04/04 06:16:26;;;;;;;3.65;0.40;;;23.60;99.90;;;;;;5058152;28;20029;-61
2023/04/04 06:18:53;;;;;;;5.38;0.75;;;23.50;99.90;;;;;;5052540;28;20385;-61
2023/04/04 06:21:21;;;;;;;5.20;1.17;;;23.30;99.90;;;;;;5065583;28;20016;-61
2023/04/04 06:23:48;;;;;;;9.73;1.15;;;23.20;99.90;;;;;;5053878;28;20027;-61
2023/04/04 06:26:16;;;;;;;6.25;1.38;;;23.00;99.90;;;;;;5055088;28;20472;-61
2023/04/04 06:28:50;;;;;;;4.90;1.17;;;22.90;99.90;;;;;;5060140;28;20039;-61
2023/04/04 06:31:18;;;;;;;4.22;0.93;;;22.80;99.90;;;;;;5060442;28;20027;-61
2023/04/04 06:33:45;;;;;;;5.60;0.73;;;22.60;99.90;;;;;;5058690;28;20029;-60
2023/04/04 06:36:13;;;;;;;2.65;0.77;;;22.60;99.90;;;;;;5057725;28;20029;-62
2023/04/04 06:38:40;;;;;;;7.93;1.25;;;22.60;99.90;;;;;;5062753;28;20111;-61
2023/04/04 06:41:08;;;;;;;4.00;0.90;;;22.60;99.90;;;;;;5059577;28;20024;-60
2023/04/04 06:43:35;;;;;;;3.72;0.68;;;22.60;99.90;;;;;;5067904;28;20043;-60
2023/04/04 06:46:03;;;;;;;4.13;0.70;;;22.60;99.90;;;;;;5065849;28;20028;-61
2023/04/04 06:48:30;;;;;;;6.68;1.08;;;22.60;99.90;;;;;;5058698;28;20020;-60
2023/04/04 06:50:58;;;;;;;3.70;0.60;;;22.70;99.90;;;;;;5056609;28;20099;-61
2023/04/04 06:53:25;;;;;;;11.93;1.70;;;22.70;99.90;;;;;;5059936;28;20017;-61
2023/04/04 06:55:53;;;;;;;8.80;1.88;;;22.80;99.90;;;;;;5060632;28;20057;-61
2023/04/04 06:58:20;;;;;;;4.32;0.90;;;22.80;99.90;;;;;;5061029;28;20025;-60
2023/04/04 07:00:48;;;;;;;6.45;1.30;;;22.70;99.90;;;;;;5055494;28;20032;-60
2023/04/04 07:03:15;;;;;;;5.22;1.02;;;22.50;99.90;;;;;;5052274;28;20113;-62
2023/04/04 07:05:43;;;;;;;6.90;0.98;;;22.40;99.90;;;;;;5066512;28;20052;-60
2023/04/04 07:08:11;;;;;;;6.55;1.40;;;22.30;99.90;;;;;;5059410;28;20493;-59
2023/04/04 07:10:38;;;;;;;5.65;0.82;;;22.10;99.90;;;;;;5065774;28;20020;-61
2023/04/04 07:13:06;;;;;;;3.75;0.80;;;22.00;99.90;;;;;;5066595;28;20036;-61
2023/04/04 07:15:33;;;;;;;9.55;1.08;;;21.90;99.90;;;;;;5065912;28;20094;-61
2023/04/04 07:18:01;;;;;;;5.50;1.17;;;21.80;99.90;;;;;;5073861;28;20025;-61
2023/04/04 07:20:28;;;;;;;5.85;1.23;;;21.70;99.90;;;;;;5069310;28;20021;-62
2023/04/04 07:22:56;;;;;;;5.43;1.00;;;21.60;99.90;;;;;;5083539;28;20016;-62
2023/04/04 07:25:23;;;;;;;9.55;2.30;;;21.50;99.90;;;;;;5058868;28;20033;-63
2023/04/04 07:27:53;;;;;;;4.72;1.08;;;21.40;99.90;;;;;;5070137;28;20078;-61
2023/04/04 07:30:25;;;;;;;6.85;1.40;;;21.30;99.90;;;;;;5059263;28;20032;-61
2023/04/04 07:33:03;;;;;;;3.78;1.27;;;21.20;99.90;;;;;;5057328;28;20056;-61
2023/04/04 07:35:30;;;;;;;6.15;1.00;;;21.20;99.90;;;;;;5062128;28;20028;-63
2023/04/04 07:37:58;;;;;;;10.35;1.50;;;21.10;99.90;;;;;;5070618;28;20021;-64
2023/04/04 07:40:26;;;;;;;6.72;1.23;;;21.10;99.90;;;;;;5065575;28;20067;-62
2023/04/04 07:42:53;;;;;;;5.75;1.15;;;21.00;99.90;;;;;;5066408;28;20111;-62
2023/04/04 07:45:23;;;;;;;5.85;1.10;;;20.80;99.90;;;;;;5060015;28;20078;-60
2023/04/04 07:47:51;;;;;;;7.75;1.25;;;20.80;99.90;;;;;;5057885;28;20513;-62
2023/04/04 07:50:18;;;;;;;8.20;1.30;;;20.70;99.90;;;;;;5078271;28;20500;-63
2023/04/04 07:52:51;;;;;;;7.38;0.95;;;20.70;99.90;;;;;;5058261;28;20036;-64
2023/04/04 07:55:19;;;;;;;6.28;1.45;;;20.70;99.90;;;;;;5073124;28;20102;-63
2023/04/04 07:57:46;;;;;;;7.10;1.13;;;20.60;99.90;;;;;;5051873;28;20032;-63
2023/04/04 08:00:16;;;;;;;9.13;1.58;;;20.60;99.90;;;;;;5059602;28;20024;-63
2023/04/04 08:02:44;;;;;;;10.10;1.38;;;20.60;99.90;;;;;;5061821;28;20055;-63
2023/04/04 08:05:12;;;;;;;14.02;3.15;;;20.50;99.90;;;;;;5056830;28;20095;-62
2023/04/04 08:07:39;;;;;;;5.30;1.02;;;20.40;99.90;;;;;;5054656;28;20572;-62
2023/04/04 08:10:07;;;;;;;5.55;1.20;;;20.40;99.90;;;;;;5057061;28;20056;-61
2023/04/04 08:12:35;;;;;;;7.88;1.98;;;20.30;99.90;;;;;;5059955;28;20094;-62
2023/04/04 08:15:03;;;;;;;5.32;1.02;;;20.20;99.90;;;;;;5058857;28;20028;-63
2023/04/04 08:17:30;;;;;;;5.25;1.42;;;20.10;99.90;;;;;;5057043;28;20047;-63
2023/04/04 08:19:58;;;;;;;6.45;1.08;;;20.00;99.90;;;;;;5059406;28;20024;-62
2023/04/04 08:22:25;;;;;;;7.53;1.52;;;19.90;99.90;;;;;;5069349;28;20066;-61
2023/04/04 08:24:53;;;;;;;4.90;1.35;;;19.80;99.90;;;;;;5066944;28;20508;-62
2023/04/04 08:27:21;;;;;;;3.88;0.93;;;19.80;99.90;;;;;;5057982;28;20025;-62
2023/04/04 08:29:48;;;;;;;6.35;1.02;;;19.70;99.90;;;;;;5061282;28;20497;-62
2023/04/04 08:32:16;;;;;;;13.52;2.03;;;19.60;99.90;;;;;;5069012;28;20043;-63
2023/04/04 08:34:43;;;;;;;6.82;1.88;;;19.50;99.90;;;;;;5069155;28;20032;-62
2023/04/04 08:37:11;;;;;;;4.18;0.98;;;19.50;99.90;;;;;;5061833;28;20012;-62
2023/04/04 08:39:38;;;;;;;8.57;1.13;;;19.30;99.90;;;;;;5066870;28;20538;-61
2023/04/04 08:42:08;;;;;;;3.63;0.93;;;19.20;99.90;;;;;;5070798;28;20158;-62
2023/04/04 08:44:39;;;;;;;8.02;1.65;;;19.00;99.90;;;;;;5064335;28;20032;-61
2023/04/04 08:47:09;;;;;;;7.55;1.42;;;18.80;99.90;;;;;;5059851;28;20431;-62
2023/04/04 08:49:41;;;;;;;6.70;2.03;;;18.70;99.90;;;;;;5059861;28;21500;-62
2023/04/04 08:52:11;;;;;;;5.13;1.58;;;18.50;99.90;;;;;;5052789;28;20021;-62
2023/04/04 08:54:42;;;;;;;6.22;1.10;;;18.30;99.90;;;;;;5066198;28;20149;-61
2023/04/04 08:57:09;;;;;;;4.70;1.05;;;18.20;99.90;;;;;;5057798;28;20035;-61
2023/04/04 08:59:37;;;;;;;3.03;0.98;;;18.10;99.90;;;;;;5065249;28;20028;-61
2023/04/04 09:02:16;;;;;;;11.40;1.45;;;18.00;99.90;;;;;;5052271;28;20036;-61
2023/04/04 09:04:47;;;;;;;4.28;1.23;;;17.90;99.90;;;;;;5059860;28;20081;-61
2023/04/04 09:07:16;;;;;;;5.45;1.83;;;17.80;99.90;;;;;;5067583;28;20770;-60
2023/04/04 09:09:46;;;;;;;6.32;1.08;;;17.70;99.90;;;;;;5074226;28;20139;-61
2023/04/04 09:12:14;;;;;;;6.95;1.10;;;17.60;99.90;;;;;;5051245;28;20460;-61
2023/04/04 09:14:45;;;;;;;7.07;1.27;;;17.50;99.90;;;;;;5068942;28;20028;-60
2023/04/04 09:17:12;;;;;;;3.08;0.80;;;17.40;99.90;;;;;;5065344;28;20115;-61
2023/04/04 09:19:40;;;;;;;5.55;1.10;;;17.30;99.90;;;;;;5062236;28;20046;-60
2023/04/04 09:22:08;;;;;;;5.45;0.93;;;17.30;99.90;;;;;;5053965;28;20039;-61
2023/04/04 09:24:41;;;;;;;4.20;1.15;;;17.20;99.90;;;;;;5060076;28;20020;-61
2023/04/04 09:27:10;;;;;;;6.60;1.10;;;17.10;99.90;;;;;;5056675;28;20025;-61
2023/04/04 09:29:41;;;;;;;6.95;1.15;;;17.00;99.90;;;;;;5061930;28;20036;-61
2023/04/04 09:32:13;;;;;;;7.38;1.35;;;16.90;99.90;;;;;;5064799;28;20024;-62
2023/04/04 09:34:42;;;;;;;5.82;2.03;;;16.80;99.90;;;;;;5054702;28;20024;-60
2023/04/04 09:37:13;;;;;;;6.88;1.52;;;16.70;99.90;;;;;;5048698;28;20017;-61
2023/04/04 09:39:42;;;;;;;6.18;1.83;;;16.60;99.90;;;;;;5072017;28;20028;-62
2023/04/04 09:42:11;;;;;;;4.75;1.02;;;16.60;99.90;;;;;;5067854;28;20115;-60
2023/04/04 09:44:38;;;;;;;3.15;1.10;;;16.50;99.90;;;;;;5066160;28;20034;-61
2023/04/04 09:47:26;;;;;;;10.75;1.45;;;16.40;99.90;;;;;;5065471;28;20036;-61
2023/04/04 09:49:57;;;;;;;6.55;1.73;;;16.30;99.90;;;;;;5070818;28;20032;-61
2023/04/04 09:52:25;;;;;;;4.50;1.85;;;16.30;99.90;;;;;;5062907;28;20040;-62
2023/04/04 09:55:00;;;;;;;6.68;1.50;;;16.20;99.90;;;;;;5063012;28;20029;-60
2023/04/04 09:57:32;;;;;;;5.57;1.40;;;16.10;99.90;;;;;;5060130;28;20037;-65
2023/04/04 10:00:01;;;;;;;9.52;2.40;;;16.00;99.90;;;;;;5060105;28;20754;-61
2023/04/04 10:02:31;;;;;;;7.22;1.60;;;16.00;99.90;;;;;;5047409;28;20331;-60
2023/04/04 10:04:59;;;;;;;11.15;1.75;;;16.00;99.90;;;;;;5062830;28;20396;-60
2023/04/04 10:07:33;;;;;;;9.02;2.35;;;15.90;99.90;;;;;;5056483;28;20063;-60
2023/04/04 10:10:11;;;;;;;8.98;3.00;;;16.00;99.90;;;;;;5057568;28;20082;-60
2023/04/04 10:12:38;;;;;;;4.95;1.20;;;15.90;99.90;;;;;;5056445;28;20055;-60
2023/04/04 10:15:07;;;;;;;15.30;2.05;;;15.80;99.90;;;;;;5066324;28;20028;-60
2023/04/04 10:17:40;;;;;;;5.78;1.60;;;15.70;99.90;;;;;;5069249;28;20073;-60
2023/04/04 10:20:09;;;;;;;9.20;1.67;;;15.80;99.90;;;;;;5068644;28;20369;-61
2023/04/04 10:22:38;;;;;;;10.48;1.70;;;15.80;99.90;;;;;;5057840;28;20175;-61
2023/04/04 10:25:08;;;;;;;9.05;1.85;;;15.90;99.90;;;;;;5076088;28;20118;-62
2023/04/04 10:27:37;;;;;;;7.53;1.70;;;15.90;99.90;;;;;;5061037;28;20553;-62
2023/04/04 10:30:06;;;;;;;11.52;1.85;;;16.00;99.90;;;;;;5061024;28;20094;-60
2023/04/04 10:32:48;;;;;;;12.02;2.53;;;16.00;99.90;;;;;;5052889;28;20131;-62
2023/04/04 10:35:17;;;;;;;12.90;2.05;;;16.00;99.90;;;;;;5061957;28;20063;-61
2023/04/04 10:37:52;;;;;;;14.40;2.10;;;16.00;99.90;;;;;;5057509;28;20028;-60
2023/04/04 10:40:25;;;;;;;14.73;2.47;;;16.00;99.90;;;;;;5064156;28;20432;-62
2023/04/04 10:42:52;;;;;;;7.72;1.90;;;15.90;99.90;;;;;;5053661;28;20024;-61
2023/04/04 10:45:20;;;;;;;10.30;2.13;;;15.90;99.90;;;;;;5060071;28;20020;-60
2023/04/04 10:47:48;;;;;;;15.05;2.13;;;15.80;99.90;;;;;;5049923;28;20021;-61
2023/04/04 10:50:16;;;;;;;12.57;3.35;;;15.80;99.90;;;;;;5055981;28;20029;-61
2023/04/04 10:52:45;;;;;;;11.93;2.22;;;15.80;99.90;;;;;;5058921;28;20024;-61
2023/04/04 10:55:14;;;;;;;16.10;2.20;;;15.80;99.90;;;;;;5066223;28;20028;-61
2023/04/04 10:57:54;;;;;;;9.88;2.17;;;16.00;99.90;;;;;;5063307;28;20028;-61
2023/04/04 11:00:23;;;;;;;13.38;2.00;;;16.20;99.90;;;;;;5057956;28;20037;-61
2023/04/04 11:03:00;;;;;;;15.20;2.03;;;16.30;99.90;;;;;;5059632;28;20013;-60
2023/04/04 11:05:40;;;;;;;12.35;2.80;;;16.40;99.90;;;;;;5069672;28;20063;-61
2023/04/04 11:08:12;;;;;;;18.13;2.80;;;16.40;99.90;;;;;;5056439;28;20092;-60
2023/04/04 11:10:51;;;;;;;13.57;2.17;;;16.50;99.90;;;;;;5053245;28;20050;-61
2023/04/04 11:13:36;;;;;;;10.75;1.92;;;16.50;99.90;;;;;;5052717;28;20025;-60
2023/04/04 11:16:14;;;;;;;12.77;2.65;;;16.60;99.90;;;;;;5059632;28;20025;-59
2023/04/04 11:18:42;;;;;;;12.00;1.40;;;16.80;99.90;;;;;;5053805;28;20424;-60
2023/04/04 11:21:23;;;;;;;11.07;2.25;;;16.80;99.90;;;;;;5056658;28;20397;-59
2023/04/04 11:23:53;;;;;;;10.07;2.72;;;16.80;99.90;;;;;;5065089;28;20780;-60
2023/04/04 11:26:27;;;;;;;7.70;1.33;;;16.90;99.90;;;;;;5078652;28;20047;-60
2023/04/04 11:29:13;;;;;;;10.98;1.65;;;16.90;99.90;;;;;;5066955;28;20243;-60
2023/04/04 11:31:47;;;;;;;11.13;1.70;;;16.80;99.90;;;;;;5065692;28;20692;-60
2023/04/04 11:34:29;;;;;;;8.77;2.17;;;16.80;99.90;;;;;;5065198;28;20028;-61
2023/04/04 11:37:00;;;;;;;6.88;1.48;;;16.70;99.90;;;;;;5065468;28;20572;-61
2023/04/04 11:39:30;;;;;;;11.27;1.95;;;16.70;99.90;;;;;;5053959;28;20111;-60
2023/04/04 11:42:13;;;;;;;12.55;1.27;;;16.70;99.90;;;;;;5053214;28;20032;-61
2023/04/04 11:44:51;;;;;;;12.18;1.90;;;16.70;99.90;;;;;;5072831;28;20018;-62
2023/04/04 11:47:24;;;;;;;13.90;2.03;;;16.70;99.90;;;;;;5059449;28;20032;-61
2023/04/04 11:49:53;;;;;;;8.13;1.65;;;16.70;99.90;;;;;;5060919;28;20124;-61
2023/04/04 11:52:22;;;;;;;9.60;1.65;;;16.70;99.90;;;;;;5049635;28;20104;-61
2023/04/04 11:54:50;;;;;;;12.90;1.70;;;16.60;99.90;;;;;;5060776;28;20480;-62
2023/04/04 11:57:20;;;;;;;9.70;2.00;;;16.60;99.90;;;;;;5064073;28;20032;-60
2023/04/04 11:59:50;;;;;;;6.05;2.28;;;16.60;99.90;;;;;;5055462;28;20078;-60
2023/04/04 12:02:30;;;;;;;8.25;1.52;;;16.60;99.90;;;;;;5069956;28;20025;-60
2023/04/04 12:04:58;;;;;;;15.10;1.67;;;16.60;99.90;;;;;;5065297;28;20483;-61
2023/04/04 12:07:27;;;;;;;6.50;2.03;;;16.60;99.90;;;;;;5057840;28;20067;-60
2023/04/04 12:09:56;;;;;;;8.75;1.40;;;16.60;99.90;;;;;;5058161;28;20043;-62
2023/04/04 12:12:25;;;;;;;12.52;1.58;;;16.60;99.90;;;;;;5059762;28;20109;-59
2023/04/04 12:14:54;;;;;;;9.02;1.08;;;16.50;99.90;;;;;;5055270;28;20547;-59
2023/04/04 12:17:22;;;;;;;4.50;1.30;;;16.50;99.90;;;;;;5054054;28;20021;-59
2023/04/04 12:19:49;;;;;;;13.30;1.65;;;16.50;99.90;;;;;;5064683;28;20027;-59
2023/04/04 12:22:17;;;;;;;10.38;2.03;;;16.40;99.90;;;;;;5058942;28;20024;-59
2023/04/04 12:24:45;;;;;;;10.82;1.83;;;16.40;99.90;;;;;;5062779;28;20029;-59
2023/04/04 12:27:14;;;;;;;8.82;1.80;;;16.30;99.90;;;;;;5060930;28;20020;-60
2023/04/04 12:29:44;;;;;;;11.43;1.75;;;16.30;99.90;;;;;;5059026;28;20033;-60
2023/04/04 12:32:20;;;;;;;7.07;1.67;;;16.20;99.90;;;;;;5061042;28;20096;-60
2023/04/04 12:34:48;;;;;;;11.50;2.45;;;16.20;99.90;;;;;;5057876;28;20063;-59
2023/04/04 12:37:17;;;;;;;11.95;2.00;;;16.10;99.90;;;;;;5045249;28;20456;-60
2023/04/04 12:39:51;;;;;;;18.23;2.75;;;16.10;99.90;;;;;;5068282;28;20040;-60
2023/04/04 12:42:23;;;;;;;16.02;1.70;;;16.00;99.90;;;;;;5054640;28;20075;-60
2023/04/04 12:44:54;;;;;;;9.05;1.38;;;16.00;99.90;;;;;;5066183;28;20024;-61
2023/04/04 12:47:24;;;;;;;8.70;1.50;;;15.90;99.90;;;;;;5065927;28;20480;-60
2023/04/04 12:49:53;;;;;;;13.43;1.85;;;15.90;99.90;;;;;;5059578;28;20132;-60
2023/04/04 12:52:26;;;;;;;6.63;1.10;;;15.90;99.90;;;;;;5082841;28;20028;-60
2023/04/04 12:54:54;;;;;;;7.68;1.27;;;16.00;99.90;;;;;;5074058;28;20024;-61